createdAt,value
2023-03-18T00:00:52.421Z,76286.88
2023-03-18T00:10:54.693Z,76296.97
2023-03-18T00:21:01.126Z,76303.06
2023-03-18T00:31:08.949Z,76301.03
2023-03-18T00:41:12.725Z,76301.03
2023-03-18T00:51:18.705Z,76301.03
2023-03-18T01:01:24.704Z,76299.00
2023-03-18T01:11:32.145Z,76305.09
2023-03-18T01:21:34.689Z,76301.03
2023-03-18T01:31:38.019Z,76307.09
2023-03-18T01:41:46.513Z,76307.09
2023-03-18T01:52:23.278Z,76299.00
2023-03-18T02:02:26.434Z,76317.22
2023-03-18T02:12:34.670Z,76325.31
2023-03-18T02:22:52.771Z,76321.28
2023-03-18T02:33:00.587Z,76315.19
2023-03-18T02:43:32.745Z,76329.38
2023-03-18T02:53:44.503Z,76329.38
2023-03-18T03:03:49.420Z,76321.28
2023-03-18T03:13:54.362Z,76309.13
2023-03-18T03:23:59.749Z,76313.19
2023-03-18T03:34:04.900Z,76311.16
2023-03-18T03:44:07.571Z,76307.09
2023-03-18T03:54:14.244Z,76311.16
2023-03-18T04:04:19.406Z,76321.28
2023-03-18T04:14:24.202Z,76327.34
2023-03-18T04:24:30.675Z,76329.38
2023-03-18T04:34:34.351Z,76343.53
2023-03-18T04:44:41.422Z,76353.66
2023-03-18T04:54:43.705Z,76361.75
2023-03-18T05:04:54.162Z,76349.63
2023-03-18T05:15:01.051Z,76319.25
2023-03-18T05:25:07.580Z,76290.91
2023-03-18T05:35:11.617Z,76238.28
2023-03-18T05:45:25.641Z,76234.25
2023-03-18T05:55:31.123Z,76209.94
2023-03-18T06:05:34.161Z,76120.91
2023-03-18T06:15:39.026Z,76074.34
2023-03-18T06:25:42.242Z,76031.84
2023-03-18T06:35:48.425Z,76001.47
2023-03-18T06:45:50.968Z,75987.31
2023-03-18T06:55:59.457Z,75958.97
2023-03-18T07:06:11.683Z,75914.44
2023-03-18T07:16:15.701Z,75855.75
2023-03-18T07:26:20.497Z,75833.50
2023-03-18T07:36:28.301Z,75819.31
2023-03-18T07:46:35.256Z,75774.81
2023-03-18T07:56:37.382Z,75740.41
2023-03-18T08:06:49.849Z,75756.59
2023-03-18T08:16:54.432Z,75691.81
2023-03-18T08:27:02.252Z,75655.41
2023-03-18T08:37:08.508Z,75653.38
2023-03-18T08:47:10.725Z,75627.06
2023-03-18T08:57:18.530Z,75590.63
2023-03-18T09:07:20.658Z,75572.44
2023-03-18T09:17:35.875Z,75536.00
2023-03-18T09:27:47.887Z,75562.31
2023-03-18T09:37:54.202Z,75542.06
2023-03-18T09:48:24.785Z,75503.63
2023-03-18T09:58:54.773Z,75527.91
2023-03-18T10:09:04.152Z,75511.72
2023-03-18T10:19:06.339Z,75523.84
2023-03-18T10:29:39.282Z,75471.25
2023-03-18T10:39:41.845Z,75455.06
2023-03-18T10:49:51.303Z,75434.81
2023-03-18T10:59:56.704Z,75402.44
2023-03-18T11:10:18.267Z,75357.91
2023-03-18T11:20:27.198Z,75347.78
2023-03-18T11:30:34.913Z,75323.50
2023-03-18T11:40:42.428Z,75303.28
2023-03-18T11:51:23.719Z,75281.03
2023-03-18T12:01:53.232Z,75262.81
2023-03-18T12:12:39.715Z,75216.25
2023-03-18T12:23:02.274Z,75187.94
2023-03-18T12:33:22.940Z,75175.78
2023-03-18T12:43:34.157Z,75187.94
2023-03-18T12:53:36.998Z,75153.53
2023-03-18T13:03:41.167Z,75145.44
2023-03-18T13:13:54.965Z,75107.00
2023-03-18T13:24:22.082Z,75074.63
2023-03-18T13:34:32.083Z,75084.75
2023-03-18T13:44:45.415Z,75066.53
2023-03-18T13:54:50.328Z,75072.59
2023-03-18T14:04:59.754Z,75058.44
2023-03-18T14:15:14.250Z,75070.56
2023-03-18T14:25:22.756Z,75036.19
2023-03-18T14:35:30.542Z,75034.16
2023-03-18T14:45:37.796Z,75013.91
2023-03-18T14:55:42.118Z,75001.78
2023-03-18T15:05:46.679Z,75001.78
2023-03-18T15:15:50.625Z,75001.78
2023-03-18T15:26:00.584Z,75003.81
2023-03-18T15:36:19.388Z,75013.91
2023-03-18T15:46:38.157Z,75013.91
2023-03-18T15:56:49.458Z,75009.88
2023-03-18T16:06:54.952Z,75013.91
2023-03-18T16:16:57.091Z,75020.00
2023-03-18T16:27:02.174Z,75034.16
2023-03-18T16:37:14.162Z,75046.28
2023-03-18T16:47:28.574Z,75062.47
2023-03-18T16:57:40.372Z,75078.66
2023-03-18T17:07:46.088Z,75092.84
2023-03-18T17:17:53.463Z,75111.03
2023-03-18T17:28:03.363Z,75119.13
2023-03-18T17:38:10.176Z,75145.44
2023-03-18T17:58:39.283Z,75181.88
2023-03-18T18:08:44.531Z,75189.97
2023-03-18T18:18:49.506Z,75198.06
2023-03-18T18:28:53.619Z,75216.25
2023-03-18T18:38:58.895Z,75226.38
2023-03-18T18:49:01.885Z,75254.72
2023-03-18T18:59:26.846Z,75281.03
2023-03-18T19:09:34.665Z,75301.25
2023-03-18T19:19:46.016Z,75313.41
2023-03-18T19:29:53.709Z,75329.59
2023-03-18T19:39:57.057Z,75351.84
2023-03-18T19:50:01.810Z,75359.94
2023-03-18T20:00:16.177Z,75366.00
2023-03-18T20:10:19.959Z,75378.16
2023-03-18T20:20:28.549Z,75366.00
2023-03-18T20:30:37.924Z,75378.16
2023-03-18T20:40:42.738Z,75394.34
2023-03-18T20:50:48.004Z,75394.34
2023-03-18T21:00:55.567Z,75406.47
2023-03-18T21:11:01.668Z,75426.72
2023-03-18T21:21:08.947Z,75430.75
2023-03-18T21:31:25.160Z,75444.94
2023-03-18T21:41:30.496Z,75444.94
2023-03-18T21:51:39.438Z,75463.16
2023-03-18T22:01:42.315Z,75479.34
2023-03-18T22:11:48.074Z,75491.47
2023-03-18T22:21:53.896Z,75503.63
2023-03-18T22:32:02.987Z,75495.53
2023-03-18T22:42:15.190Z,75505.66
2023-03-18T22:52:29.685Z,75511.72
2023-03-18T23:02:37.222Z,75517.78
2023-03-18T23:12:44.810Z,75529.94
2023-03-18T23:22:47.249Z,75556.25
2023-03-18T23:32:53.248Z,75578.50
2023-03-18T23:43:03.119Z,75586.59
2023-03-18T23:53:07.940Z,75596.72
